createdAt,value
2018-08-25T00:00:20.280Z,12.43
2018-08-25T00:02:49.094Z,17.03
2018-08-25T00:05:21.055Z,14.07
2018-08-25T00:07:50.826Z,12.60
2018-08-25T00:10:19.832Z,15.03
2018-08-25T00:12:50.215Z,14.00
2018-08-25T00:15:19.350Z,15.43
2018-08-25T00:17:48.085Z,15.90
2018-08-25T00:20:17.628Z,13.23
2018-08-25T00:22:46.380Z,14.93
2018-08-25T00:25:15.988Z,13.43
2018-08-25T00:27:44.623Z,18.10
2018-08-25T00:30:18.753Z,14.97
2018-08-25T00:32:48.765Z,23.43
2018-08-25T00:35:18.162Z,19.33
2018-08-25T00:37:47.021Z,13.93
2018-08-25T00:40:17.800Z,16.53
2018-08-25T00:42:46.566Z,12.73
2018-08-25T00:45:17.008Z,15.30
2018-08-25T00:47:45.881Z,12.63
2018-08-25T00:50:16.252Z,16.50
2018-08-25T00:52:45.888Z,20.53
2018-08-25T00:55:15.705Z,18.03
2018-08-25T00:57:45.068Z,15.90
2018-08-25T01:00:14.432Z,13.83
2018-08-25T01:02:44.677Z,15.03
2018-08-25T01:05:14.395Z,16.03
2018-08-25T01:07:46.063Z,15.07
2018-08-25T01:10:15.412Z,15.43
2018-08-25T01:12:45.687Z,15.37
2018-08-25T01:15:15.508Z,23.83
2018-08-25T01:17:45.195Z,17.30
2018-08-25T01:20:14.641Z,13.17
2018-08-25T01:22:43.841Z,18.97
2018-08-25T01:25:12.512Z,12.37
2018-08-25T01:27:41.881Z,12.90
2018-08-25T01:30:10.886Z,15.77
2018-08-25T01:32:39.536Z,20.80
2018-08-25T01:35:08.572Z,11.90
2018-08-25T01:37:38.225Z,14.33
2018-08-25T01:40:06.968Z,13.80
2018-08-25T01:42:37.110Z,13.57
2018-08-25T01:45:07.518Z,13.20
2018-08-25T01:47:36.732Z,13.30
2018-08-25T01:50:06.235Z,25.30
2018-08-25T01:52:34.954Z,18.47
2018-08-25T01:55:03.778Z,16.90
2018-08-25T01:57:33.477Z,15.67
2018-08-25T02:00:04.215Z,13.43
2018-08-25T02:02:34.026Z,14.37
2018-08-25T02:05:02.879Z,13.03
2018-08-25T02:07:33.281Z,14.93
2018-08-25T02:10:02.394Z,16.13
2018-08-25T02:12:32.107Z,15.90
2018-08-25T02:15:01.005Z,22.57
2018-08-25T02:17:31.341Z,14.40
2018-08-25T02:20:01.444Z,14.80
2018-08-25T02:22:30.481Z,16.97
2018-08-25T02:25:00.357Z,14.00
2018-08-25T02:27:29.752Z,18.67
2018-08-25T02:29:58.740Z,16.90
2018-08-25T02:32:28.850Z,15.00
2018-08-25T02:34:59.304Z,15.53
2018-08-25T02:37:29.648Z,14.67
2018-08-25T02:39:59.305Z,20.23
2018-08-25T02:42:27.981Z,21.20
2018-08-25T02:44:58.789Z,27.47
2018-08-25T02:47:27.906Z,13.23
2018-08-25T02:49:56.718Z,17.67
2018-08-25T02:52:26.716Z,12.70
2018-08-25T02:54:56.513Z,22.00
2018-08-25T02:57:25.661Z,15.67
2018-08-25T02:59:56.308Z,17.87
2018-08-25T03:02:26.709Z,22.03
2018-08-25T03:04:55.467Z,17.97
2018-08-25T03:07:24.440Z,17.70
2018-08-25T03:09:54.038Z,13.43
2018-08-25T03:12:23.306Z,15.90
2018-08-25T03:14:53.240Z,17.47
2018-08-25T03:17:23.395Z,22.10
2018-08-25T03:19:54.037Z,16.77
2018-08-25T03:22:24.957Z,13.73
2018-08-25T03:24:54.996Z,15.50
2018-08-25T03:27:23.674Z,15.57
2018-08-25T03:29:52.980Z,17.47
2018-08-25T03:32:22.543Z,15.70
2018-08-25T03:34:52.053Z,13.23
2018-08-25T03:37:20.844Z,24.17
2018-08-25T03:39:50.807Z,14.60
2018-08-25T03:42:20.566Z,21.20
2018-08-25T03:44:49.543Z,15.57
2018-08-25T03:47:25.207Z,16.03
2018-08-25T03:49:55.022Z,17.60
2018-08-25T03:52:25.652Z,14.23
2018-08-25T03:54:54.827Z,23.60
2018-08-25T03:57:23.542Z,14.73
2018-08-25T03:59:52.912Z,21.77
2018-08-25T04:02:21.682Z,15.60
2018-08-25T04:04:50.561Z,13.37
2018-08-25T04:07:20.961Z,19.23
2018-08-25T04:09:49.973Z,14.93
2018-08-25T04:12:18.908Z,15.43
2018-08-25T04:14:47.724Z,15.23
2018-08-25T04:17:17.873Z,14.33
2018-08-25T04:19:48.175Z,16.40
2018-08-25T04:22:18.165Z,12.70
2018-08-25T04:24:47.645Z,17.27
2018-08-25T04:27:16.918Z,19.73
2018-08-25T04:29:45.794Z,21.37
2018-08-25T04:32:14.511Z,13.13
2018-08-25T04:34:44.091Z,14.73
2018-08-25T04:37:12.758Z,18.50
2018-08-25T04:39:41.496Z,24.13
2018-08-25T04:42:11.756Z,15.13
2018-08-25T04:44:41.849Z,18.53
2018-08-25T04:47:14.044Z,18.23
2018-08-25T04:49:43.361Z,14.70
2018-08-25T04:52:13.250Z,17.53
2018-08-25T04:54:43.190Z,15.50
2018-08-25T04:57:13.355Z,23.10
2018-08-25T04:59:42.550Z,33.13
2018-08-25T05:02:11.693Z,33.33
2018-08-25T05:04:41.757Z,49.03
2018-08-25T05:07:12.984Z,48.83
2018-08-25T05:09:42.990Z,60.67
2018-08-25T05:12:12.083Z,58.40
2018-08-25T05:14:41.940Z,53.97
2018-08-25T05:17:11.377Z,72.57
2018-08-25T05:19:41.092Z,63.90
2018-08-25T05:22:11.221Z,65.20
2018-08-25T05:24:40.848Z,55.07
2018-08-25T05:27:09.531Z,63.47
2018-08-25T05:29:38.544Z,63.23
2018-08-25T05:32:09.667Z,67.53
2018-08-25T05:34:38.898Z,77.10
2018-08-25T05:37:08.344Z,67.17
2018-08-25T05:39:37.677Z,68.17
2018-08-25T05:42:07.193Z,57.20
2018-08-25T05:44:37.272Z,55.73
2018-08-25T05:47:07.337Z,66.93
2018-08-25T05:49:36.935Z,54.17
2018-08-25T05:52:05.814Z,67.83
2018-08-25T05:54:36.879Z,67.77
2018-08-25T05:57:05.625Z,70.13
2018-08-25T05:59:35.274Z,60.70
2018-08-25T06:02:05.010Z,70.60
2018-08-25T06:04:35.881Z,60.40
2018-08-25T06:07:06.247Z,61.17
2018-08-25T06:09:35.086Z,59.10
2018-08-25T06:12:04.028Z,65.57
2018-08-25T06:14:32.836Z,59.77
2018-08-25T06:17:01.872Z,51.63
2018-08-25T06:19:31.002Z,54.30
2018-08-25T06:22:01.683Z,64.97
2018-08-25T06:24:30.639Z,49.60
2018-08-25T06:27:00.037Z,57.03
2018-08-25T06:29:29.950Z,52.37
2018-08-25T06:31:59.189Z,64.13
2018-08-25T06:34:29.726Z,58.70
2018-08-25T06:36:59.335Z,55.57
2018-08-25T06:39:28.249Z,51.47
2018-08-25T06:41:57.912Z,67.43
2018-08-25T06:44:29.170Z,59.33
2018-08-25T06:46:59.076Z,54.87
2018-08-25T06:49:28.781Z,59.20
2018-08-25T06:51:59.133Z,54.77
2018-08-25T06:54:27.845Z,54.10
2018-08-25T06:56:56.549Z,53.10
2018-08-25T06:59:25.517Z,48.20
2018-08-25T07:01:55.884Z,57.47
2018-08-25T07:04:24.636Z,59.37
2018-08-25T07:06:54.327Z,59.93
2018-08-25T07:09:23.431Z,50.07
2018-08-25T07:11:52.410Z,48.17
2018-08-25T07:14:21.725Z,58.93
2018-08-25T07:16:50.977Z,51.10
2018-08-25T07:19:20.741Z,52.17
2018-08-25T07:21:50.726Z,50.27
2018-08-25T07:24:21.092Z,45.20
2018-08-25T07:26:51.092Z,65.70
2018-08-25T07:29:21.210Z,46.87
2018-08-25T07:31:50.180Z,53.10
2018-08-25T07:34:19.488Z,57.80
2018-08-25T07:36:49.345Z,54.10
2018-08-25T07:39:19.331Z,60.30
2018-08-25T07:41:48.352Z,57.23
2018-08-25T07:44:17.660Z,57.10
2018-08-25T07:46:48.433Z,56.77
2018-08-25T07:49:18.481Z,60.80
2018-08-25T07:51:47.227Z,77.07
2018-08-25T07:54:16.297Z,65.63
2018-08-25T07:56:45.275Z,79.50
2018-08-25T07:59:14.526Z,71.00
2018-08-25T08:01:44.157Z,72.43
2018-08-25T08:04:13.627Z,78.13
2018-08-25T08:06:42.328Z,101.77
2018-08-25T08:09:11.823Z,89.07
2018-08-25T08:11:40.575Z,92.97
2018-08-25T08:14:10.272Z,87.43
2018-08-25T08:16:40.502Z,93.83
2018-08-25T08:19:10.229Z,86.97
2018-08-25T08:21:40.136Z,93.33
2018-08-25T08:24:09.465Z,101.73
2018-08-25T08:26:38.635Z,97.53
2018-08-25T08:29:07.542Z,85.93
2018-08-25T08:31:36.302Z,78.80
2018-08-25T08:34:05.015Z,76.87
2018-08-25T08:36:33.953Z,69.00
2018-08-25T08:39:02.708Z,43.43
2018-08-25T08:41:31.701Z,57.50
2018-08-25T08:44:00.517Z,58.93
2018-08-25T08:46:36.257Z,50.73
2018-08-25T08:49:07.988Z,50.87
2018-08-25T08:51:38.342Z,49.57
2018-08-25T08:54:07.787Z,45.87
2018-08-25T08:56:36.472Z,43.23
2018-08-25T08:59:05.208Z,41.93
2018-08-25T09:01:34.212Z,29.93
2018-08-25T09:04:03.242Z,34.83
2018-08-25T09:06:32.031Z,28.90
2018-08-25T09:09:00.796Z,34.70
2018-08-25T09:11:29.679Z,27.97
2018-08-25T09:13:58.502Z,27.93
2018-08-25T09:16:27.411Z,24.43
2018-08-25T09:18:56.249Z,36.47
2018-08-25T09:21:25.115Z,31.23
2018-08-25T09:23:53.874Z,28.03
2018-08-25T09:26:22.914Z,48.43
2018-08-25T09:28:51.655Z,25.97
2018-08-25T09:31:20.366Z,31.27
2018-08-25T09:33:49.472Z,34.23
2018-08-25T09:36:18.556Z,29.43
2018-08-25T09:38:48.181Z,29.70
2018-08-25T09:41:18.501Z,24.53
2018-08-25T09:43:47.731Z,27.33
2018-08-25T09:46:16.898Z,27.67
2018-08-25T09:48:45.711Z,29.13
2018-08-25T09:51:14.539Z,35.03
2018-08-25T09:53:43.826Z,31.53
2018-08-25T09:56:13.151Z,30.70
2018-08-25T09:58:43.451Z,25.47
2018-08-25T10:01:18.501Z,28.97
2018-08-25T10:03:47.379Z,29.17
2018-08-25T10:06:16.234Z,29.20
2018-08-25T10:08:45.066Z,26.37
2018-08-25T10:11:13.874Z,28.10
2018-08-25T10:13:42.673Z,32.07
2018-08-25T10:16:11.539Z,37.10
2018-08-25T10:18:40.306Z,32.80
2018-08-25T10:21:09.548Z,24.80
2018-08-25T10:23:38.540Z,26.47
2018-08-25T10:26:07.402Z,21.10
2018-08-25T10:28:36.350Z,25.63
2018-08-25T10:31:05.406Z,28.93
2018-08-25T10:33:34.661Z,20.17
2018-08-25T10:36:03.772Z,19.37
2018-08-25T10:38:32.753Z,22.13
2018-08-25T10:41:02.674Z,24.30
2018-08-25T10:43:33.541Z,16.40
2018-08-25T10:46:02.274Z,23.07
2018-08-25T10:48:31.050Z,28.50
2018-08-25T10:50:59.766Z,23.77
2018-08-25T10:53:28.515Z,17.97
2018-08-25T10:55:58.368Z,17.10
2018-08-25T10:58:28.991Z,19.50
2018-08-25T11:00:57.917Z,16.37
2018-08-25T11:03:26.878Z,23.60
2018-08-25T11:05:56.865Z,19.30
2018-08-25T11:08:25.680Z,13.80
2018-08-25T11:10:55.196Z,19.40
2018-08-25T11:13:24.383Z,16.50
2018-08-25T11:15:53.377Z,18.50
2018-08-25T11:18:22.404Z,19.10
2018-08-25T11:20:51.681Z,16.20
2018-08-25T11:23:20.434Z,19.03
2018-08-25T11:25:49.162Z,15.10
2018-08-25T11:28:17.918Z,14.50
2018-08-25T11:30:46.801Z,17.13
2018-08-25T11:33:15.449Z,14.23
2018-08-25T11:35:44.420Z,15.27
2018-08-25T11:38:13.534Z,16.97
2018-08-25T11:40:42.448Z,15.53
2018-08-25T11:43:11.076Z,25.93
2018-08-25T11:45:39.762Z,16.40
2018-08-25T11:48:08.816Z,13.97
2018-08-25T11:50:37.861Z,14.43
2018-08-25T11:53:07.048Z,15.90
2018-08-25T11:55:36.065Z,13.10
2018-08-25T11:58:05.169Z,17.07
2018-08-25T12:00:34.011Z,15.80
2018-08-25T12:03:03.833Z,20.00
2018-08-25T12:05:31.829Z,13.83
2018-08-25T12:08:01.305Z,14.23
2018-08-25T12:10:31.276Z,12.70
2018-08-25T12:13:00.046Z,12.57
2018-08-25T12:15:29.148Z,13.00
2018-08-25T12:17:57.839Z,21.77
2018-08-25T12:20:27.288Z,16.07
2018-08-25T12:22:56.989Z,21.93
2018-08-25T12:25:26.458Z,19.10
2018-08-25T12:27:55.438Z,12.80
2018-08-25T12:30:24.204Z,19.57
2018-08-25T12:32:53.336Z,19.80
2018-08-25T12:35:22.602Z,11.47
2018-08-25T12:37:51.639Z,20.20
2018-08-25T12:40:21.231Z,21.90
2018-08-25T12:42:50.796Z,31.63
2018-08-25T12:45:19.885Z,20.70
2018-08-25T12:47:48.580Z,20.00
2018-08-25T12:50:17.338Z,17.53
2018-08-25T12:52:46.534Z,14.90
2018-08-25T12:55:15.467Z,21.03
2018-08-25T12:57:44.522Z,13.33
2018-08-25T13:00:13.585Z,11.43
2018-08-25T13:02:42.730Z,15.90
2018-08-25T13:05:12.337Z,14.70
2018-08-25T13:07:41.410Z,17.53
2018-08-25T13:10:10.629Z,13.83
2018-08-25T13:12:41.365Z,27.27
2018-08-25T13:15:10.193Z,21.57
2018-08-25T13:17:39.289Z,17.23
2018-08-25T13:20:08.096Z,19.20
2018-08-25T13:22:38.134Z,16.77
2018-08-25T13:25:07.912Z,18.50
2018-08-25T13:27:37.757Z,18.80
2018-08-25T13:30:07.079Z,17.07
2018-08-25T13:32:36.690Z,18.67
2018-08-25T13:35:05.705Z,15.13
2018-08-25T13:37:35.498Z,13.00
2018-08-25T13:40:04.744Z,16.10
2018-08-25T13:42:34.944Z,19.07
2018-08-25T13:45:05.455Z,19.17
2018-08-25T13:47:34.851Z,19.57
2018-08-25T13:50:05.439Z,16.87
2018-08-25T13:52:35.416Z,16.63
2018-08-25T13:55:04.690Z,15.43
2018-08-25T13:57:33.793Z,17.57
2018-08-25T14:00:02.771Z,14.10
2018-08-25T14:02:32.489Z,12.53
2018-08-25T14:05:01.281Z,11.33
2018-08-25T14:07:32.624Z,11.43
2018-08-25T14:10:01.325Z,17.80
2018-08-25T14:12:30.221Z,15.90
2018-08-25T14:14:59.006Z,15.10
2018-08-25T14:17:28.288Z,16.23
2018-08-25T14:19:57.382Z,19.17
2018-08-25T14:22:26.295Z,16.40
2018-08-25T14:24:56.310Z,15.60
2018-08-25T14:27:25.011Z,25.70
2018-08-25T14:29:54.067Z,15.27
2018-08-25T14:32:23.289Z,13.80
2018-08-25T14:34:52.005Z,16.50
2018-08-25T14:37:20.954Z,19.23
2018-08-25T14:39:49.712Z,12.83
2018-08-25T14:42:18.451Z,10.60
2018-08-25T14:44:47.436Z,11.83
2018-08-25T14:47:16.111Z,10.57
2018-08-25T14:49:45.440Z,13.40
2018-08-25T14:52:14.592Z,10.07
2018-08-25T14:54:43.652Z,14.93
2018-08-25T14:57:13.204Z,14.00
2018-08-25T14:59:42.536Z,12.60
2018-08-25T15:02:11.799Z,12.23
2018-08-25T15:04:40.446Z,11.40
2018-08-25T15:07:10.147Z,13.57
2018-08-25T15:09:39.294Z,10.33
2018-08-25T15:12:08.706Z,11.27
2018-08-25T15:14:37.828Z,12.40
2018-08-25T15:17:08.281Z,11.80
2018-08-25T15:19:38.717Z,11.23
2018-08-25T15:22:09.199Z,13.70
2018-08-25T15:24:38.114Z,12.67
2018-08-25T15:27:07.520Z,12.43
2018-08-25T15:29:36.580Z,13.23
2018-08-25T15:32:05.507Z,9.97
2018-08-25T15:34:35.525Z,9.20
2018-08-25T15:37:05.008Z,13.40
2018-08-25T15:39:33.945Z,11.80
2018-08-25T15:42:02.618Z,33.53
2018-08-25T15:44:31.295Z,8.70
2018-08-25T15:47:00.132Z,8.80
2018-08-25T15:49:29.285Z,9.67
2018-08-25T15:51:59.155Z,16.73
2018-08-25T15:54:28.272Z,18.30
2018-08-25T15:56:56.871Z,8.60
2018-08-25T15:59:25.607Z,9.07
2018-08-25T16:01:54.266Z,9.87
2018-08-25T16:04:23.414Z,8.97
2018-08-25T16:06:52.935Z,8.50
2018-08-25T16:09:22.559Z,11.90
2018-08-25T16:11:51.371Z,9.40
2018-08-25T16:14:20.425Z,15.37
2018-08-25T16:16:49.770Z,16.20
2018-08-25T16:19:19.082Z,9.03
2018-08-25T16:21:47.858Z,11.20
2018-08-25T16:24:16.559Z,17.03
2018-08-25T16:26:45.977Z,16.97
2018-08-25T16:29:15.807Z,14.13
2018-08-25T16:31:45.754Z,10.10
2018-08-25T16:34:14.495Z,12.10
2018-08-25T16:36:43.195Z,12.50
2018-08-25T16:39:11.921Z,25.63
2018-08-25T16:41:40.872Z,13.57
2018-08-25T16:44:10.437Z,11.00
2018-08-25T16:46:39.680Z,10.93
2018-08-25T16:49:08.728Z,12.17
2018-08-25T16:51:37.483Z,13.53
2018-08-25T16:54:06.778Z,9.90
2018-08-25T16:56:35.448Z,9.90
2018-08-25T16:59:04.288Z,9.67
2018-08-25T17:01:33.385Z,13.87
2018-08-25T17:04:03.467Z,21.10
2018-08-25T17:06:33.324Z,10.17
2018-08-25T17:09:03.066Z,10.33
2018-08-25T17:11:31.918Z,10.37
2018-08-25T17:14:01.171Z,10.17
2018-08-25T17:16:30.140Z,10.90
2018-08-25T17:18:59.239Z,10.30
2018-08-25T17:21:28.376Z,19.27
2018-08-25T17:23:57.228Z,10.77
2018-08-25T17:26:25.895Z,11.43
2018-08-25T17:28:54.638Z,13.10
2018-08-25T17:31:23.775Z,16.83
2018-08-25T17:33:52.597Z,10.30
2018-08-25T17:36:21.770Z,12.77
2018-08-25T17:38:50.693Z,10.50
2018-08-25T17:41:19.980Z,14.03
2018-08-25T17:43:49.025Z,9.90
2018-08-25T17:46:17.838Z,9.90
2018-08-25T17:48:46.557Z,14.63
2018-08-25T17:51:15.267Z,10.00
2018-08-25T17:53:43.916Z,11.33
2018-08-25T17:56:12.945Z,9.90
2018-08-25T17:58:42.065Z,10.30
2018-08-25T18:01:11.250Z,14.50
2018-08-25T18:03:40.053Z,11.60
2018-08-25T18:06:08.850Z,10.07
2018-08-25T18:08:38.069Z,9.97
2018-08-25T18:11:07.007Z,13.83
2018-08-25T18:13:35.882Z,17.60
2018-08-25T18:16:04.657Z,10.03
2018-08-25T18:18:33.457Z,9.50
2018-08-25T18:21:02.180Z,17.37
2018-08-25T18:23:31.341Z,10.70
2018-08-25T18:26:00.036Z,11.00
2018-08-25T18:28:29.110Z,10.83
2018-08-25T18:30:58.210Z,14.30
2018-08-25T18:33:27.294Z,13.50
2018-08-25T18:35:56.750Z,10.27
2018-08-25T18:38:25.821Z,10.63
2018-08-25T18:40:55.434Z,11.70
2018-08-25T18:43:25.030Z,11.80
2018-08-25T18:45:54.287Z,11.00
2018-08-25T18:48:23.096Z,11.97
2018-08-25T18:50:52.331Z,13.53
2018-08-25T18:53:21.415Z,10.77
2018-08-25T18:55:50.388Z,17.93
2018-08-25T18:58:19.271Z,21.40
2018-08-25T19:00:48.416Z,10.50
2018-08-25T19:03:17.721Z,11.87
2018-08-25T19:05:46.464Z,11.20
2018-08-25T19:08:15.387Z,10.13
2018-08-25T19:10:44.200Z,10.30
2018-08-25T19:13:13.606Z,9.97
2018-08-25T19:15:42.590Z,16.40
2018-08-25T19:18:11.896Z,11.57
2018-08-25T19:20:40.639Z,15.30
2018-08-25T19:23:09.844Z,9.97
2018-08-25T19:25:38.619Z,16.03
2018-08-25T19:28:07.376Z,9.10
2018-08-25T19:30:36.433Z,11.40
2018-08-25T19:33:05.228Z,12.33
2018-08-25T19:35:33.890Z,10.03
2018-08-25T19:38:03.007Z,12.27
2018-08-25T19:40:31.790Z,9.70
2018-08-25T19:43:01.161Z,9.63
2018-08-25T19:45:30.844Z,10.00
2018-08-25T19:47:59.693Z,10.03
2018-08-25T19:50:28.356Z,12.63
2018-08-25T19:52:57.088Z,8.90
2018-08-25T19:55:25.765Z,9.73
2018-08-25T19:57:54.497Z,10.63
2018-08-25T20:00:23.295Z,9.90
2018-08-25T20:02:51.965Z,9.50
2018-08-25T20:05:20.991Z,10.17
2018-08-25T20:07:49.793Z,11.00
2018-08-25T20:10:18.534Z,9.47
2018-08-25T20:12:47.942Z,9.40
2018-08-25T20:15:17.078Z,10.90
2018-08-25T20:17:45.812Z,8.83
2018-08-25T20:20:14.625Z,10.80
2018-08-25T20:22:43.495Z,10.10
2018-08-25T20:25:12.462Z,9.43
2018-08-25T20:27:41.336Z,9.30
2018-08-25T20:30:10.306Z,9.83
2018-08-25T20:32:39.120Z,10.20
2018-08-25T20:35:08.145Z,9.30
2018-08-25T20:37:38.143Z,9.10
2018-08-25T20:40:07.022Z,9.17
2018-08-25T20:42:35.847Z,10.70
2018-08-25T20:45:05.522Z,16.17
2018-08-25T20:47:34.334Z,9.00
2018-08-25T20:50:03.606Z,9.47
2018-08-25T20:52:33.446Z,9.00
2018-08-25T20:55:02.323Z,9.73
2018-08-25T20:57:31.808Z,9.27
2018-08-25T21:00:00.589Z,9.20
2018-08-25T21:02:31.374Z,9.20
2018-08-25T21:05:00.172Z,8.90
2018-08-25T21:07:29.411Z,10.57
2018-08-25T21:09:59.119Z,11.40
2018-08-25T21:12:28.683Z,9.90
2018-08-25T21:14:58.165Z,9.37
2018-08-25T21:17:27.485Z,9.30
2018-08-25T21:19:56.364Z,13.90
2018-08-25T21:22:25.906Z,9.67
2018-08-25T21:24:54.924Z,9.00
2018-08-25T21:27:24.234Z,13.13
2018-08-25T21:29:54.926Z,9.13
2018-08-25T21:32:23.764Z,11.00
2018-08-25T21:34:52.906Z,9.27
2018-08-25T21:37:21.874Z,10.20
2018-08-25T21:39:51.614Z,13.70
2018-08-25T21:42:21.873Z,9.60
2018-08-25T21:44:51.207Z,10.80
2018-08-25T21:47:20.457Z,9.40
2018-08-25T21:49:49.686Z,9.60
2018-08-25T21:52:19.472Z,8.83
2018-08-25T21:54:49.009Z,9.23
2018-08-25T21:57:18.586Z,10.27
2018-08-25T21:59:48.970Z,9.47
2018-08-25T22:02:19.130Z,9.80
2018-08-25T22:04:50.078Z,9.90
2018-08-25T22:07:19.521Z,9.03
2018-08-25T22:09:49.391Z,9.07
2018-08-25T22:12:20.017Z,10.67
2018-08-25T22:14:48.712Z,9.57
2018-08-25T22:17:17.443Z,11.03
2018-08-25T22:19:46.208Z,8.80
2018-08-25T22:22:14.936Z,9.70
2018-08-25T22:24:43.599Z,13.83
2018-08-25T22:27:12.303Z,9.83
2018-08-25T22:29:42.111Z,9.87
2018-08-25T22:32:10.791Z,10.80
2018-08-25T22:34:39.467Z,9.30
2018-08-25T22:37:08.191Z,9.27
2018-08-25T22:39:37.640Z,9.20
2018-08-25T22:42:07.052Z,8.70
2018-08-25T22:44:36.245Z,11.27
2018-08-25T22:47:05.499Z,9.60
2018-08-25T22:49:35.139Z,11.60
2018-08-25T22:52:04.537Z,11.07
2018-08-25T22:54:33.478Z,9.70
2018-08-25T22:57:05.379Z,9.20
2018-08-25T22:59:35.929Z,10.40
2018-08-25T23:02:06.141Z,9.60
2018-08-25T23:04:35.448Z,8.90
2018-08-25T23:07:04.105Z,10.70
2018-08-25T23:09:32.813Z,13.50
2018-08-25T23:12:01.548Z,10.90
2018-08-25T23:14:30.316Z,9.53
2018-08-25T23:16:59.032Z,8.90
2018-08-25T23:19:27.711Z,9.03
2018-08-25T23:21:56.729Z,9.57
2018-08-25T23:24:25.444Z,9.77
2018-08-25T23:26:54.170Z,8.90
2018-08-25T23:29:22.818Z,10.03
2018-08-25T23:31:52.782Z,9.23
2018-08-25T23:34:22.623Z,9.93
2018-08-25T23:36:51.325Z,9.10
2018-08-25T23:39:20.846Z,9.67
2018-08-25T23:41:50.415Z,11.10
2018-08-25T23:44:19.801Z,11.13
2018-08-25T23:46:48.783Z,9.80
2018-08-25T23:49:18.517Z,10.10
2018-08-25T23:51:48.427Z,11.83
2018-08-25T23:54:18.378Z,9.50
2018-08-25T23:56:47.072Z,11.50
2018-08-25T23:59:17.335Z,9.00
